Time;durP1;ratioP1;P1;durP2;ratioP2;P2;SDS_P1;SDS_P2;PMS_P1;PMS_P2;Temp;Humidity;BMP_temperature;BMP_pressure;BME280_temperature;BME280_humidity;BME280_pressure;Samples;Min_cycle;Max_cycle;Signal;HPM_P1;HPM_P2
2022/01/28 00:01:08;;;;;;;;;11.60;10.00;;;;;8.78;51.27;98332.59;6216379;28;96691;-71
2022/01/28 00:04:15;;;;;;;;;11.00;9.00;;;;;8.80;51.20;98333.16;6207454;28;97470;-71
2022/01/28 00:07:18;;;;;;;;;10.00;9.00;;;;;8.72;51.24;98333.47;6210673;28;96753;-72
2022/01/28 00:10:23;;;;;;;;;10.33;9.33;;;;;8.60;51.71;98331.50;6214468;28;96843;-73
2022/01/28 00:13:31;;;;;;;;;11.00;9.40;;;;;8.60;51.70;98323.44;6200334;28;96811;-73
2022/01/28 00:37:13;;;;;;;;;11.00;10.00;;;;;8.60;51.49;98318.06;6145171;28;97853;-72
2022/01/28 00:40:17;;;;;;;;;14.25;11.25;;;;;8.45;51.91;98304.22;6142563;28;96989;-73
2022/01/28 00:43:21;;;;;;;;;11.80;9.80;;;;;8.49;51.95;98313.47;6142700;28;99467;-73
2022/01/28 00:46:24;;;;;;;;;10.60;10.20;;;;;8.49;51.89;98318.00;6163178;28;97542;-73
2022/01/28 00:49:27;;;;;;;;;10.40;9.00;;;;;8.56;51.68;98314.19;6145632;28;97261;-73
2022/01/28 00:52:32;;;;;;;;;11.00;10.00;;;;;8.68;51.44;98322.34;6162699;28;96542;-72
2022/01/28 00:55:36;;;;;;;;;13.00;12.00;;;;;8.62;51.53;98318.69;6162031;28;96698;-72
2022/01/28 00:58:39;;;;;;;;;10.00;9.25;;;;;8.55;51.47;98317.13;6146244;28;96707;-72
2022/01/28 01:01:43;;;;;;;;;10.75;9.00;;;;;8.58;51.39;98320.19;6161548;28;97845;-71
2022/01/28 01:04:47;;;;;;;;;10.00;9.00;;;;;8.49;51.68;98316.16;6161969;28;96842;-71
2022/01/28 01:07:51;;;;;;;;;10.00;9.00;;;;;8.49;51.79;98315.31;6161662;28;97483;-71
2022/01/28 01:10:55;;;;;;;;;12.00;10.00;;;;;8.49;51.75;98305.41;6127050;28;98641;-72
2022/01/28 01:13:59;;;;;;;;;11.00;10.00;;;;;8.56;51.35;98291.88;6186993;28;99103;-72
2022/01/28 01:17:15;;;;;;;;;11.00;9.50;;;;;8.60;51.25;98312.69;6200664;28;99561;-71
2022/01/28 01:20:36;;;;;;;;;10.25;10.00;;;;;8.58;51.03;98285.25;6196167;28;99808;-72
2022/01/28 01:23:50;;;;;;;;;10.80;9.00;;;;;8.60;51.00;98283.16;6191532;28;98901;-73
2022/01/28 01:26:53;;;;;;;;;10.60;9.40;;;;;8.47;51.12;98285.16;6191124;28;98065;-73
2022/01/28 01:29:57;;;;;;;;;10.00;9.00;;;;;8.63;51.13;98271.16;6190685;28;96381;-73
2022/01/28 01:33:00;;;;;;;;;10.00;10.00;;;;;8.56;51.08;98278.44;6189778;28;96376;-73
2022/01/28 01:36:04;;;;;;;;;10.00;9.50;;;;;8.43;51.50;98271.38;6198102;28;97016;-71
2022/01/28 01:39:09;;;;;;;;;9.00;9.00;;;;;8.42;51.59;98280.47;6198599;28;97312;-72
2022/01/28 01:42:22;;;;;;;;;7.20;6.20;;;;;8.60;51.16;98274.28;6213633;28;96926;-71
2022/01/28 01:52:04;;;;;;;;;7.00;7.00;;;;;8.51;51.50;98281.81;6212809;28;96875;-72
2022/01/28 01:55:10;;;;;;;;;7.60;7.00;;;;;8.26;52.26;98271.06;6211332;28;97585;-72
2022/01/28 01:58:13;;;;;;;;;7.20;6.00;;;;;8.18;52.85;98281.28;6189873;28;97618;-73
2022/01/28 02:01:17;;;;;;;;;7.00;7.00;;;;;8.33;52.29;98262.16;6201081;28;98394;-72
2022/01/28 02:04:20;;;;;;;;;8.00;7.00;;;;;8.38;52.13;98259.63;6197421;28;97886;-71
2022/01/28 02:07:26;;;;;;;;;7.00;7.00;;;;;8.21;52.23;98243.25;6176753;28;99545;-72
2022/01/28 02:10:30;;;;;;;;;8.00;7.00;;;;;8.22;52.42;98242.22;6214099;28;97487;-72
2022/01/28 02:13:36;;;;;;;;;8.00;8.00;;;;;8.12;52.47;98252.63;6194359;28;97994;-72
2022/01/28 02:16:40;;;;;;;;;6.00;6.00;;;;;8.00;52.54;98247.19;6205105;28;98632;-71
2022/01/28 02:19:43;;;;;;;;;7.00;7.00;;;;;8.09;52.36;98243.16;6211942;28;98892;-73
2022/01/28 02:22:48;;;;;;;;;6.50;6.00;;;;;8.09;52.10;98242.34;6212940;28;97486;-72
2022/01/28 02:25:56;;;;;;;;;5.60;5.60;;;;;8.10;51.91;98234.09;6212594;28;97095;-71
2022/01/28 02:29:07;;;;;;;;;8.00;7.00;;;;;8.23;51.36;98241.16;6212671;28;96712;-72
2022/01/28 02:32:10;;;;;;;;;6.00;6.00;;;;;8.10;51.59;98250.19;6188493;28;97159;-71
2022/01/28 02:35:14;;;;;;;;;5.00;5.00;;;;;8.10;51.51;98246.69;6189036;28;97270;-71
2022/01/28 02:38:21;;;;;;;;;6.00;5.00;;;;;8.02;51.23;98238.88;6213147;28;96762;-71
2022/01/28 02:41:28;;;;;;;;;8.40;8.00;;;;;7.87;51.08;98255.34;6211897;28;96425;-72
2022/01/28 02:44:45;;;;;;;;;6.80;6.00;;;;;7.94;50.77;98249.91;6212183;28;96446;-73
2022/01/28 02:47:54;;;;;;;;;5.00;5.00;;;;;8.09;50.93;98266.50;6187489;28;96537;-71
2022/01/28 02:51:04;;;;;;;;;7.00;6.60;;;;;8.14;50.75;98237.97;6187214;28;97398;-72
2022/01/28 02:54:16;;;;;;;;;6.00;5.00;;;;;8.20;50.25;98263.94;6187348;28;97488;-71
2022/01/28 02:57:25;;;;;;;;;5.20;4.20;;;;;8.38;49.66;98260.47;6203691;28;97483;-71
2022/01/28 03:00:28;;;;;;;;;7.00;7.00;;;;;8.48;49.26;98250.03;6203724;28;96433;-72
2022/01/28 03:03:32;;;;;;;;;6.00;6.00;;;;;8.55;49.33;98250.75;6203150;28;96804;-71
2022/01/28 03:06:35;;;;;;;;;6.25;5.25;;;;;8.33;48.99;98219.19;6202393;28;96620;-72
2022/01/28 03:09:50;;;;;;;;;6.40;6.00;;;;;8.56;49.45;98244.34;6212864;28;97462;-72
2022/01/28 03:13:16;;;;;;;;;5.40;5.00;;;;;8.50;48.90;98242.53;6193552;28;96387;-72
2022/01/28 03:16:21;;;;;;;;;5.00;4.60;;;;;8.39;48.60;98237.13;6186540;28;98686;-72
2022/01/28 03:19:27;;;;;;;;;5.00;5.00;;;;;8.35;48.95;98233.25;6186363;28;96702;-72
2022/01/28 03:22:32;;;;;;;;;4.00;3.33;;;;;8.40;49.11;98228.03;6203666;28;97370;-73
2022/01/28 03:25:41;;;;;;;;;6.00;6.00;;;;;8.42;49.16;98234.78;6187279;28;97231;-72
2022/01/28 03:28:45;;;;;;;;;5.00;4.00;;;;;8.26;49.55;98232.66;6187763;28;96440;-72
2022/01/28 03:31:48;;;;;;;;;5.00;4.00;;;;;8.36;49.29;98224.13;6199228;28;96618;-71
2022/01/28 03:34:51;;;;;;;;;4.00;4.00;;;;;8.12;49.94;98248.09;6211480;28;97439;-72
2022/01/28 03:38:00;;;;;;;;;5.00;4.20;;;;;8.13;49.85;98243.53;6188073;28;98095;-72
2022/01/28 03:41:05;;;;;;;;;4.00;4.00;;;;;8.09;50.05;98231.59;6190179;28;97503;-72
2022/01/28 03:44:08;;;;;;;;;5.00;4.00;;;;;8.13;49.61;98239.00;6193890;28;97747;-72
2022/01/28 03:47:12;;;;;;;;;6.00;5.00;;;;;8.09;49.73;98234.28;6195477;28;96542;-72
2022/01/28 03:50:15;;;;;;;;;5.00;4.60;;;;;8.21;49.63;98235.19;6186238;28;100147;-72
2022/01/28 03:53:18;;;;;;;;;3.00;3.00;;;;;8.26;49.33;98244.22;6197076;28;96699;-71
2022/01/28 03:56:23;;;;;;;;;4.60;4.00;;;;;8.05;48.97;98217.81;6194446;28;96869;-72
2022/01/28 03:59:26;;;;;;;;;3.00;3.00;;;;;8.25;49.20;98239.91;6187581;28;97691;-71
2022/01/28 04:02:33;;;;;;;;;4.00;4.00;;;;;8.31;49.15;98242.78;6203500;28;98814;-71
2022/01/28 04:12:16;;;;;;;;;5.00;5.00;;;;;8.10;49.44;98233.25;6202358;28;97180;-71
2022/01/28 04:15:33;;;;;;;;;6.00;6.00;;;;;7.88;49.50;98242.75;6185656;28;96975;-71
2022/01/28 04:18:37;;;;;;;;;4.25;4.00;;;;;8.16;49.40;98270.75;6214444;28;97764;-71
2022/01/28 04:21:40;;;;;;;;;4.00;4.00;;;;;8.15;48.96;98269.16;6212370;28;97570;-72
2022/01/28 04:24:43;;;;;;;;;4.00;4.00;;;;;8.03;48.53;98235.16;6197482;28;97964;-72
2022/01/28 04:27:48;;;;;;;;;4.00;4.00;;;;;8.09;49.05;98261.13;6187315;28;97381;-72
2022/01/28 04:30:51;;;;;;;;;3.00;3.00;;;;;8.03;49.04;98244.03;6190304;28;97722;-72
2022/01/28 04:33:56;;;;;;;;;2.00;2.00;;;;;7.94;49.16;98242.69;6187434;28;96859;-71
2022/01/28 04:37:07;;;;;;;;;3.00;3.00;;;;;8.06;49.35;98254.34;6187288;28;97389;-73
2022/01/28 04:40:15;;;;;;;;;3.40;3.40;;;;;8.02;49.31;98265.72;6187923;28;97790;-71
2022/01/28 04:43:25;;;;;;;;;3.00;3.00;;;;;8.02;49.37;98244.25;6205200;28;97519;-72
2022/01/28 04:46:36;;;;;;;;;2.60;2.60;;;;;8.02;49.39;98249.63;6200077;28;96996;-71
2022/01/28 04:49:52;;;;;;;;;3.00;3.00;;;;;7.88;49.62;98251.63;6201011;28;97475;-72
2022/01/28 04:53:29;;;;;;;;;3.00;3.00;;;;;7.94;49.34;98255.28;6215414;28;96902;-71
2022/01/28 04:56:48;;;;;;;;;2.00;2.00;;;;;8.06;49.24;98242.81;6210854;28;96638;-73
2022/01/28 05:00:05;;;;;;;;;2.60;2.00;;;;;7.90;49.91;98254.09;6206068;28;98099;-72
2022/01/28 05:03:28;;;;;;;;;3.40;3.00;;;;;7.98;50.53;98253.81;6221157;28;98380;-71
2022/01/28 05:07:13;;;;;;;;;4.00;4.00;;;;;7.88;51.01;98253.47;6191295;28;96557;-71
2022/01/28 05:14:26;;;;;;;;;2.50;2.00;;;;;7.71;52.24;98237.13;6212168;28;98610;-73
2022/01/28 05:24:34;;;;;;;;;3.00;2.00;;;;;7.65;53.65;98246.88;6212593;28;97343;-71
2022/01/28 05:27:39;;;;;;;;;2.40;2.40;;;;;7.64;53.89;98255.13;6213056;28;98592;-72
2022/01/28 05:30:42;;;;;;;;;2.50;2.00;;;;;7.29;53.99;98199.25;6194667;28;96499;-72
2022/01/28 05:33:48;;;;;;;;;3.00;2.00;;;;;7.51;54.53;98264.09;6214903;28;97603;-71
2022/01/28 05:36:52;;;;;;;;;2.80;2.80;;;;;7.63;54.25;98261.53;6196626;28;96785;-72
2022/01/28 05:39:55;;;;;;;;;3.00;3.00;;;;;7.43;54.86;98264.34;6214974;28;96456;-73
2022/01/28 05:42:58;;;;;;;;;3.00;3.00;;;;;7.31;55.33;98269.59;6212535;28;96879;-72
2022/01/28 05:46:02;;;;;;;;;3.00;3.00;;;;;7.34;55.60;98269.16;6206449;28;96662;-72
2022/01/28 05:49:08;;;;;;;;;3.40;3.00;;;;;7.28;55.67;98279.94;6214238;28;96453;-71
2022/01/28 05:52:11;;;;;;;;;3.00;3.00;;;;;7.19;56.05;98273.16;6214299;28;96649;-74
2022/01/28 05:55:15;;;;;;;;;2.80;2.00;;;;;7.26;55.96;98285.50;6194362;28;98531;-72
2022/01/28 05:58:19;;;;;;;;;2.60;2.00;;;;;7.23;56.21;98282.44;6212814;28;96364;-72
2022/01/28 06:01:22;;;;;;;;;2.75;2.00;;;;;7.08;56.55;98297.97;6212459;28;96584;-72
2022/01/28 06:04:28;;;;;;;;;3.00;3.00;;;;;7.10;56.54;98290.53;6206423;28;96760;-71
2022/01/28 06:07:31;;;;;;;;;4.00;3.00;;;;;7.09;56.58;98291.56;6199330;28;97282;-70
2022/01/28 06:10:36;;;;;;;;;4.00;3.60;;;;;7.07;56.81;98297.16;6198897;28;96768;-71
2022/01/28 06:13:40;;;;;;;;;4.00;3.00;;;;;7.08;56.74;98297.97;6199515;28;97300;-71
2022/01/28 06:16:43;;;;;;;;;5.00;4.00;;;;;6.93;57.15;98303.63;6195215;28;96536;-72
2022/01/28 06:19:48;;;;;;;;;4.00;4.00;;;;;6.93;57.35;98298.25;6210163;28;98888;-74
2022/01/28 06:22:51;;;;;;;;;3.80;3.00;;;;;6.85;57.08;98283.22;6211229;28;96605;-73
2022/01/28 06:25:54;;;;;;;;;6.00;6.00;;;;;6.88;57.60;98298.91;6202735;28;99746;-71
2022/01/28 06:28:58;;;;;;;;;5.00;5.00;;;;;6.93;57.42;98304.44;6205031;28;97521;-72
2022/01/28 06:32:01;;;;;;;;;4.00;4.00;;;;;6.77;57.78;98312.94;6195676;28;97554;-72
2022/01/28 06:35:08;;;;;;;;;4.00;4.00;;;;;6.77;57.99;98322.84;6197119;28;97130;-72
2022/01/28 06:38:12;;;;;;;;;3.80;3.20;;;;;6.92;57.58;98318.03;6188607;28;96727;-72
2022/01/28 06:41:15;;;;;;;;;5.40;5.00;;;;;6.80;58.04;98330.44;6189003;28;97490;-73
2022/01/28 06:44:19;;;;;;;;;5.00;4.60;;;;;6.70;58.14;98325.50;6189222;28;97350;-73
2022/01/28 06:47:22;;;;;;;;;5.00;4.00;;;;;6.62;58.23;98309.69;6174418;28;99410;-71
2022/01/28 06:50:27;;;;;;;;;4.00;4.00;;;;;6.84;57.96;98324.44;6211637;28;97318;-72
2022/01/28 06:53:30;;;;;;;;;3.00;2.60;;;;;7.06;57.52;98337.56;6209043;28;96577;-71
2022/01/28 06:56:33;;;;;;;;;5.40;4.00;;;;;6.97;57.53;98339.66;6198811;28;96659;-71
2022/01/28 06:59:37;;;;;;;;;3.00;3.00;;;;;7.07;57.27;98341.91;6210605;28;98254;-68
2022/01/28 07:02:41;;;;;;;;;3.25;3.00;;;;;6.81;57.54;98322.19;6210556;28;97459;-68
2022/01/28 07:05:46;;;;;;;;;3.00;3.00;;;;;7.07;57.27;98340.03;6209542;28;97560;-71
2022/01/28 07:08:49;;;;;;;;;5.00;4.00;;;;;7.02;57.44;98344.38;6200402;28;97448;-71
2022/01/28 07:11:52;;;;;;;;;3.00;3.00;;;;;7.05;57.41;98352.00;6188006;28;97530;-69
2022/01/28 07:14:56;;;;;;;;;5.00;4.00;;;;;6.90;57.36;98357.59;6217239;28;96704;-70
2022/01/28 07:18:01;;;;;;;;;4.00;4.00;;;;;7.01;57.31;98359.63;6209728;28;96776;-73
2022/01/28 07:21:06;;;;;;;;;3.00;3.00;;;;;7.12;57.00;98364.34;6188612;28;96487;-73
2022/01/28 07:24:09;;;;;;;;;5.00;5.00;;;;;7.16;56.96;98360.19;6203960;28;96438;-72
2022/01/28 07:27:19;;;;;;;;;3.60;3.00;;;;;7.07;57.38;98369.53;6202563;28;97622;-71
2022/01/28 07:30:22;;;;;;;;;6.25;5.25;;;;;7.06;57.33;98369.72;6190613;28;97658;-72
2022/01/28 07:33:26;;;;;;;;;4.00;4.00;;;;;7.25;57.08;98364.28;6210117;28;100719;-71
2022/01/28 07:36:30;;;;;;;;;4.00;4.00;;;;;7.32;56.61;98361.59;6210145;28;98423;-72
2022/01/28 07:39:34;;;;;;;;;5.00;5.00;;;;;7.51;56.35;98375.91;6191935;28;97514;-70
2022/01/28 07:42:38;;;;;;;;;6.00;6.00;;;;;7.39;56.22;98354.31;6202149;28;98249;-68
2022/01/28 07:45:41;;;;;;;;;5.60;5.00;;;;;7.68;55.64;98371.69;6205856;28;96561;-72
2022/01/28 07:48:44;;;;;;;;;5.00;4.00;;;;;7.71;55.52;98371.28;6199407;28;97244;-69
2022/01/28 07:51:49;;;;;;;;;5.00;5.00;;;;;7.53;55.96;98363.94;6185177;28;97901;-71
2022/01/28 07:54:53;;;;;;;;;5.00;4.00;;;;;7.61;55.65;98370.91;6186168;28;97402;-72
2022/01/28 07:57:56;;;;;;;;;4.00;4.00;;;;;7.62;55.27;98383.31;6198854;28;96687;-69
2022/01/28 08:00:59;;;;;;;;;5.00;4.00;;;;;7.77;55.23;98367.72;6189980;28;97499;-72
2022/01/28 08:04:03;;;;;;;;;5.50;4.00;;;;;7.98;54.68;98382.63;6191641;28;97431;-72
2022/01/28 08:07:07;;;;;;;;;4.00;3.00;;;;;7.98;54.08;98388.00;6195467;28;97493;-74
2022/01/28 08:10:11;;;;;;;;;5.00;4.00;;;;;7.95;54.69;98385.78;6202812;28;97477;-72
2022/01/28 08:13:15;;;;;;;;;5.00;4.80;;;;;7.74;54.33;98397.66;6203574;28;97290;-71
2022/01/28 08:16:19;;;;;;;;;5.60;4.00;;;;;7.84;54.33;98398.00;6198935;28;96589;-71
2022/01/28 08:19:22;;;;;;;;;5.20;4.20;;;;;7.92;54.08;98407.66;6205783;28;96501;-70
2022/01/28 08:22:27;;;;;;;;;6.00;5.80;;;;;8.06;54.13;98414.59;6204516;28;97216;-69
2022/01/28 08:25:32;;;;;;;;;4.00;3.20;;;;;7.92;54.08;98413.03;6186879;28;96980;-70
2022/01/28 08:28:37;;;;;;;;;4.00;3.80;;;;;7.92;53.99;98407.66;6206308;28;97329;-68
2022/01/28 08:31:40;;;;;;;;;5.00;4.00;;;;;7.96;53.81;98415.09;6189724;28;96703;-70
2022/01/28 08:34:44;;;;;;;;;3.00;3.00;;;;;7.91;53.46;98408.72;6201650;28;96537;-72
2022/01/28 08:37:49;;;;;;;;;3.00;2.00;;;;;7.71;53.61;98411.50;6197569;28;99723;-72
2022/01/28 08:40:53;;;;;;;;;2.00;2.00;;;;;7.95;53.77;98416.13;6199284;28;97420;-67
2022/01/28 08:43:57;;;;;;;;;3.00;3.00;;;;;7.87;53.65;98420.94;6201871;28;97381;-71
2022/01/28 08:47:00;;;;;;;;;4.67;4.67;;;;;7.88;53.80;98438.66;6201485;28;97048;-67
2022/01/28 08:50:05;;;;;;;;;3.00;3.00;;;;;8.00;53.44;98439.63;6198912;28;96881;-70
2022/01/28 08:53:10;;;;;;;;;6.20;4.60;;;;;8.00;53.40;98447.69;6198214;28;97234;-69
2022/01/28 08:56:13;;;;;;;;;3.60;3.00;;;;;8.05;53.55;98463.97;6199582;28;97074;-73
2022/01/28 08:59:16;;;;;;;;;3.00;3.00;;;;;8.01;53.62;98466.25;6208240;28;97802;-69
2022/01/28 09:02:19;;;;;;;;;2.00;2.00;;;;;8.02;53.71;98459.00;6198825;28;97387;-69
2022/01/28 09:05:23;;;;;;;;;3.80;3.80;;;;;8.07;53.81;98472.59;6210396;28;97789;-72
2022/01/28 09:08:28;;;;;;;;;2.40;2.40;;;;;8.00;54.19;98478.03;6213597;28;96745;-68
2022/01/28 09:11:45;;;;;;;;;3.40;3.40;;;;;7.96;54.41;98484.88;6214599;28;96455;-69
2022/01/28 09:14:48;;;;;;;;;3.00;3.00;;;;;7.91;54.61;98486.56;6207980;28;99702;-72
2022/01/28 09:17:51;;;;;;;;;4.00;4.00;;;;;7.87;54.64;98488.81;6199648;28;98195;-68
2022/01/28 09:20:54;;;;;;;;;5.00;5.00;;;;;7.86;54.89;98492.56;6196654;28;96717;-67
2022/01/28 09:23:59;;;;;;;;;4.40;4.00;;;;;7.92;55.07;98512.31;6201858;28;97955;-67
2022/01/28 09:27:03;;;;;;;;;4.00;4.00;;;;;7.99;54.66;98521.19;6200210;28;97422;-71
2022/01/28 09:30:07;;;;;;;;;5.60;4.00;;;;;7.63;55.12;98498.41;6214186;28;97021;-71
2022/01/28 09:33:11;;;;;;;;;5.00;4.00;;;;;7.50;56.20;98503.84;6217596;28;97203;-69
2022/01/28 09:36:14;;;;;;;;;5.00;4.00;;;;;7.55;56.19;98504.03;6211729;28;97239;-69
2022/01/28 09:39:20;;;;;;;;;6.00;5.00;;;;;7.61;56.16;98505.03;6213626;28;96775;-70
2022/01/28 09:42:28;;;;;;;;;5.00;4.00;;;;;7.73;55.61;98500.66;6214041;28;97445;-71
2022/01/28 09:45:31;;;;;;;;;5.00;4.00;;;;;7.64;55.94;98520.72;6209169;28;99494;-71
2022/01/28 09:48:34;;;;;;;;;6.00;6.00;;;;;7.48;56.16;98518.50;6225649;28;96981;-69
2022/01/28 09:51:38;;;;;;;;;5.00;4.00;;;;;7.34;56.66;98510.47;6207604;28;99496;-68
2022/01/28 09:54:46;;;;;;;;;6.20;5.80;;;;;7.26;56.89;98491.94;6200473;28;96800;-72
2022/01/28 09:57:52;;;;;;;;;7.00;5.00;;;;;7.56;56.33;98510.22;6205614;28;96580;-69
2022/01/28 10:00:56;;;;;;;;;4.25;4.00;;;;;7.64;56.29;98526.06;6203561;28;97454;-67
2022/01/28 10:04:04;;;;;;;;;6.00;5.00;;;;;7.53;56.41;98530.22;6200866;28;96408;-68
2022/01/28 10:07:11;;;;;;;;;4.50;4.00;;;;;7.62;56.30;98515.56;6199697;28;97524;-66
2022/01/28 10:10:15;;;;;;;;;6.00;6.00;;;;;7.62;56.21;98529.00;6202415;28;97373;-69
2022/01/28 10:13:24;;;;;;;;;7.60;6.00;;;;;7.48;56.54;98505.09;6202980;28;97029;-71
2022/01/28 10:16:29;;;;;;;;;5.00;5.00;;;;;7.62;56.33;98529.00;6210489;28;97686;-68
2022/01/28 10:19:40;;;;;;;;;6.00;5.00;;;;;7.56;56.40;98539.72;6196905;28;96766;-67
2022/01/28 10:22:50;;;;;;;;;6.40;6.00;;;;;7.53;56.36;98554.38;6204961;28;97025;-70
2022/01/28 10:26:02;;;;;;;;;5.60;5.00;;;;;7.39;56.58;98545.53;6223058;28;96681;-69
2022/01/28 10:29:07;;;;;;;;;7.80;7.00;;;;;7.47;56.71;98546.38;6207611;28;97639;-69
2022/01/28 10:32:13;;;;;;;;;7.00;6.00;;;;;7.32;56.64;98547.44;6210720;28;98351;-68
2022/01/28 10:35:31;;;;;;;;;6.00;5.25;;;;;7.38;56.70;98551.09;6206866;28;97553;-68
2022/01/28 10:38:36;;;;;;;;;6.40;6.40;;;;;7.30;56.82;98535.25;6206331;28;99803;-67
2022/01/28 10:41:48;;;;;;;;;9.00;7.00;;;;;7.45;56.72;98559.16;6205582;28;96771;-69
2022/01/28 10:44:55;;;;;;;;;8.50;6.00;;;;;7.39;56.78;98552.75;6204357;28;96412;-68
2022/01/28 10:48:02;;;;;;;;;5.80;5.40;;;;;7.49;56.54;98553.16;6206326;28;97478;-68
2022/01/28 10:51:06;;;;;;;;;8.00;7.00;;;;;7.64;56.16;98566.31;6204362;28;97584;-68
2022/01/28 10:54:11;;;;;;;;;7.75;7.00;;;;;7.66;56.04;98572.31;6196282;28;96676;-67
2022/01/28 10:57:16;;;;;;;;;7.00;6.00;;;;;7.75;55.95;98577.25;6197339;28;97587;-68
2022/01/28 11:00:20;;;;;;;;;9.00;8.00;;;;;7.73;55.64;98575.78;6191803;28;96673;-71
2022/01/28 11:03:26;;;;;;;;;8.60;7.60;;;;;7.71;55.87;98580.56;6204972;28;97833;-67
2022/01/28 11:06:31;;;;;;;;;8.00;7.00;;;;;7.66;56.10;98583.88;6206185;28;97405;-68
2022/01/28 11:09:34;;;;;;;;;7.60;6.60;;;;;7.76;55.87;98576.22;6209183;28;97557;-67
2022/01/28 11:12:41;;;;;;;;;7.00;6.20;;;;;7.69;55.98;98572.69;6204090;28;96681;-68
2022/01/28 11:15:44;;;;;;;;;8.00;8.00;;;;;7.67;56.05;98593.53;6209256;28;97453;-65
2022/01/28 11:18:49;;;;;;;;;7.67;7.67;;;;;7.66;56.14;98593.78;6200687;28;98445;-67
2022/01/28 11:22:16;;;;;;;;;9.00;7.00;;;;;7.72;55.98;98576.84;6190306;28;97149;-67
2022/01/28 11:25:36;;;;;;;;;7.00;6.60;;;;;7.71;56.06;98589.44;6197721;28;96558;-71
2022/01/28 11:28:43;;;;;;;;;7.80;7.00;;;;;7.64;55.94;98599.34;6210870;28;97026;-70
2022/01/28 11:31:48;;;;;;;;;8.25;7.00;;;;;7.82;55.99;98596.81;6200339;28;97393;-67
2022/01/28 11:34:58;;;;;;;;;9.00;6.25;;;;;7.63;55.69;98573.53;6202390;28;98331;-68
2022/01/28 11:38:05;;;;;;;;;10.00;8.00;;;;;7.70;56.15;98608.41;6199235;28;97470;-66
2022/01/28 11:41:13;;;;;;;;;7.50;6.00;;;;;7.77;55.97;98611.91;6206017;28;97613;-67
2022/01/28 11:44:45;;;;;;;;;7.00;6.00;;;;;7.65;56.34;98610.91;6201703;28;97730;-68
2022/01/28 11:47:56;;;;;;;;;9.00;6.00;;;;;7.56;56.32;98598.75;6202818;28;98043;-70
2022/01/28 11:51:04;;;;;;;;;11.00;9.00;;;;;7.61;56.25;98605.13;6212230;28;96774;-68
2022/01/28 11:54:08;;;;;;;;;6.50;6.50;;;;;7.58;56.71;98621.63;6211611;28;96669;-71
2022/01/28 11:57:21;;;;;;;;;10.60;8.60;;;;;7.66;56.59;98636.69;6206274;28;96631;-66
2022/01/28 12:00:30;;;;;;;;;8.00;8.00;;;;;7.76;56.04;98629.06;6210180;28;99468;-70
2022/01/28 12:03:36;;;;;;;;;10.00;9.00;;;;;7.86;56.03;98639.34;6227431;28;97211;-67
2022/01/28 12:06:40;;;;;;;;;8.00;8.00;;;;;7.92;55.77;98635.78;6216440;28;96648;-67
2022/01/28 12:09:45;;;;;;;;;9.00;7.00;;;;;7.97;55.79;98646.72;6207810;28;96388;-68
2022/01/28 12:12:58;;;;;;;;;9.40;9.00;;;;;7.87;55.93;98639.13;6206013;28;97928;-68
2022/01/28 12:16:13;;;;;;;;;9.00;7.00;;;;;7.84;56.12;98647.59;6180201;28;100121;-67
2022/01/28 12:19:18;;;;;;;;;8.00;8.00;;;;;7.84;56.13;98647.59;6213866;28;97327;-69
2022/01/28 12:22:21;;;;;;;;;9.00;7.40;;;;;7.84;56.11;98647.59;6211808;28;98440;-69
2022/01/28 12:25:46;;;;;;;;;8.40;8.00;;;;;7.76;56.17;98656.72;6209800;28;98425;-68
2022/01/28 12:29:04;;;;;;;;;8.40;8.00;;;;;7.90;55.85;98645.94;6208523;28;97551;-69
2022/01/28 12:32:28;;;;;;;;;9.00;9.00;;;;;7.93;56.01;98654.38;6208007;28;96520;-66
2022/01/28 12:35:39;;;;;;;;;10.00;8.00;;;;;7.81;56.08;98653.41;6211243;28;96988;-67
2022/01/28 12:38:55;;;;;;;;;8.00;7.00;;;;;7.88;55.87;98654.19;6205393;28;97683;-70
2022/01/28 12:42:06;;;;;;;;;8.75;6.25;;;;;8.06;55.91;98665.06;6209344;28;96660;-68
2022/01/28 12:45:10;;;;;;;;;10.00;8.00;;;;;7.88;56.03;98667.59;6211582;28;96681;-69
2022/01/28 12:48:22;;;;;;;;;8.00;7.00;;;;;7.98;55.82;98672.53;6213601;28;97388;-69
2022/01/28 12:51:25;;;;;;;;;10.00;9.00;;;;;7.98;55.91;98667.19;6206908;28;97306;-69
2022/01/28 12:54:38;;;;;;;;;8.40;8.00;;;;;7.78;56.36;98686.00;6207029;28;98415;-70
2022/01/28 12:57:43;;;;;;;;;8.60;8.00;;;;;7.78;56.54;98691.38;6209541;28;98035;-69
2022/01/28 13:00:52;;;;;;;;;8.00;7.00;;;;;7.95;56.17;98678.34;6203409;28;97684;-70
2022/01/28 13:04:08;;;;;;;;;7.00;7.00;;;;;7.87;55.97;98689.31;6208896;28;96564;-68
2022/01/28 13:10:34;;;;;;;;;9.00;8.00;;;;;8.05;56.07;98710.94;6225471;28;98481;-69
2022/01/28 13:13:47;;;;;;;;;9.00;9.00;;;;;8.20;55.76;98714.22;6206961;28;97286;-69
2022/01/28 13:16:50;;;;;;;;;10.20;8.60;;;;;8.25;55.44;98722.47;6201607;28;97774;-70
2022/01/28 13:19:57;;;;;;;;;11.00;9.20;;;;;8.19;55.37;98715.25;6206435;28;97411;-70
2022/01/28 13:23:00;;;;;;;;;12.60;9.00;;;;;8.23;55.55;98724.53;6216369;27;98002;-70
2022/01/28 13:26:07;;;;;;;;;9.00;8.00;;;;;8.03;55.56;98713.00;6206964;28;96978;-70
2022/01/28 13:29:11;;;;;;;;;10.00;9.00;;;;;8.16;55.87;98737.97;6225217;28;96912;-70
2022/01/28 13:32:18;;;;;;;;;8.00;8.00;;;;;8.22;55.84;98741.66;6207162;28;97380;-68
2022/01/28 13:35:24;;;;;;;;;12.40;10.00;;;;;8.23;55.77;98737.97;6206976;28;97389;-67
2022/01/28 13:38:35;;;;;;;;;8.75;8.75;;;;;8.27;55.45;98740.00;6207678;28;97420;-69
2022/01/28 13:41:39;;;;;;;;;9.00;9.00;;;;;8.23;55.73;98735.28;6193122;28;99532;-70
2022/01/28 13:44:49;;;;;;;;;9.00;8.50;;;;;8.34;55.43;98752.63;6206506;28;97410;-69
2022/01/28 13:47:53;;;;;;;;;8.00;7.40;;;;;8.41;55.33;98742.69;6211785;28;97457;-69
2022/01/28 13:51:04;;;;;;;;;7.75;7.00;;;;;8.47;55.10;98757.97;6207903;28;97454;-70
2022/01/28 13:54:19;;;;;;;;;10.00;9.00;;;;;8.55;54.53;98750.50;6200659;28;96952;-68
2022/01/28 13:57:28;;;;;;;;;10.00;10.00;;;;;8.76;54.25;98767.38;6206063;28;97249;-70
2022/01/28 14:00:39;;;;;;;;;9.00;7.40;;;;;8.85;54.03;98774.97;6198123;28;97899;-70
2022/01/28 14:03:54;;;;;;;;;9.00;8.00;;;;;8.87;53.76;98780.97;6210038;28;97198;-69
2022/01/28 14:07:18;;;;;;;;;7.40;7.00;;;;;8.79;53.71;98788.47;6208251;28;98555;-68
2022/01/28 14:10:21;;;;;;;;;9.00;8.00;;;;;8.92;53.60;98799.16;6210058;28;96951;-70
2022/01/28 14:13:24;;;;;;;;;10.60;8.60;;;;;8.87;53.34;98775.59;6206930;28;97512;-68
2022/01/28 14:16:27;;;;;;;;;7.00;6.50;;;;;8.92;53.24;98797.31;6212541;28;96964;-68
2022/01/28 14:19:36;;;;;;;;;8.80;7.40;;;;;8.97;53.39;98810.09;6209194;28;98501;-70
2022/01/28 14:22:45;;;;;;;;;8.00;7.00;;;;;9.09;52.93;98805.69;6198977;28;96406;-67
2022/01/28 14:25:48;;;;;;;;;9.20;7.20;;;;;9.01;52.94;98812.16;6218711;28;96805;-70
2022/01/28 14:32:10;;;;;;;;;8.40;8.00;;;;;8.92;52.96;98828.75;6205080;28;97440;-69
2022/01/28 14:35:14;;;;;;;;;11.00;8.40;;;;;8.96;53.31;98832.66;6210794;28;98808;-69
2022/01/28 14:38:18;;;;;;;;;9.00;8.00;;;;;8.91;53.36;98844.03;6201642;28;97196;-69
2022/01/28 14:41:22;;;;;;;;;10.25;7.25;;;;;8.92;53.07;98842.19;6188625;28;98419;-67
2022/01/28 14:44:25;;;;;;;;;8.00;8.00;;;;;8.94;53.12;98851.66;6196503;28;97285;-70
2022/01/28 14:47:28;;;;;;;;;7.40;7.00;;;;;8.98;53.00;98858.31;6206066;28;97432;-69
2022/01/28 14:50:33;;;;;;;;;9.00;9.00;;;;;9.03;53.16;98863.03;6212728;28;97517;-69
2022/01/28 14:53:37;;;;;;;;;9.40;8.00;;;;;9.03;53.14;98863.88;6206270;28;97001;-69
2022/01/28 14:56:41;;;;;;;;;7.00;7.00;;;;;9.03;53.29;98880.00;6209506;28;97368;-67
2022/01/28 14:59:45;;;;;;;;;9.40;9.00;;;;;9.01;53.04;98886.63;6209424;28;97361;-68
2022/01/28 15:02:48;;;;;;;;;9.00;7.00;;;;;9.10;52.97;98902.31;6207136;28;97009;-68
2022/01/28 15:05:52;;;;;;;;;8.00;7.00;;;;;9.12;52.90;98916.38;6198375;28;97885;-67
2022/01/28 15:09:00;;;;;;;;;8.00;8.00;;;;;9.17;52.48;98926.50;6199076;28;96403;-68
2022/01/28 15:12:03;;;;;;;;;10.00;8.00;;;;;9.14;52.41;98922.34;6206256;28;97004;-68
2022/01/28 15:15:07;;;;;;;;;8.00;7.00;;;;;9.22;52.21;98931.25;6193826;28;96450;-67
2022/01/28 15:18:11;;;;;;;;;8.00;8.00;;;;;9.24;52.37;98921.06;6200563;28;97500;-69
2022/01/28 15:21:15;;;;;;;;;8.00;7.00;;;;;9.15;52.38;98936.63;6209600;28;96681;-67
2022/01/28 15:24:20;;;;;;;;;8.40;7.40;;;;;9.03;52.87;98939.16;6188442;28;96517;-67
2022/01/28 15:27:25;;;;;;;;;8.00;7.00;;;;;9.04;52.73;98946.16;6247285;27;96548;-68
2022/01/28 15:34:16;;;;;;;;;9.75;8.75;;;;;9.02;52.83;98947.44;6201795;28;96842;-70
2022/01/28 15:37:19;;;;;;;;;9.00;8.00;;;;;9.09;52.84;98942.84;6211973;28;96834;-67
2022/01/28 15:40:25;;;;;;;;;9.00;9.00;;;;;9.07;52.68;98953.84;6183483;28;97064;-69